createdAt,value
2022-09-13T00:00:49.456Z,6.60
2022-09-13T00:03:51.126Z,5.47
2022-09-13T00:06:52.717Z,5.78
2022-09-13T00:09:54.337Z,4.85
2022-09-13T00:12:55.932Z,4.28
2022-09-13T00:15:58.412Z,5.97
2022-09-13T00:19:00.667Z,5.00
2022-09-13T00:22:02.232Z,8.55
2022-09-13T00:25:05.441Z,8.77
2022-09-13T00:28:07.306Z,6.30
2022-09-13T00:31:09.881Z,5.90
2022-09-13T00:34:11.691Z,5.90
2022-09-13T00:37:13.221Z,7.65
2022-09-13T00:40:14.886Z,8.90
2022-09-13T00:43:22.222Z,4.45
2022-09-13T00:46:48.411Z,6.35
2022-09-13T00:49:53.805Z,5.90
2022-09-13T00:53:04.933Z,4.25
2022-09-13T00:56:14.453Z,6.95
2022-09-13T00:59:24.594Z,6.20
2022-09-13T01:02:28.768Z,6.05
2022-09-13T01:05:38.638Z,6.68
2022-09-13T01:08:43.054Z,7.00
2022-09-13T01:11:55.644Z,7.57
2022-09-13T01:14:58.861Z,9.75
2022-09-13T01:18:00.558Z,5.93
2022-09-13T01:21:14.200Z,5.88
2022-09-13T01:24:24.800Z,9.27
2022-09-13T01:27:42.869Z,4.78
2022-09-13T01:31:10.956Z,7.85
2022-09-13T01:34:30.250Z,8.07
2022-09-13T01:37:43.666Z,5.68
2022-09-13T01:41:04.981Z,6.93
2022-09-13T01:44:52.288Z,8.63
2022-09-13T01:47:59.348Z,6.43
2022-09-13T01:51:04.511Z,5.05
2022-09-13T01:54:37.200Z,5.57
2022-09-13T01:57:49.467Z,5.25
2022-09-13T02:01:03.489Z,5.72
2022-09-13T02:04:18.170Z,3.75
2022-09-13T02:07:35.380Z,6.38
2022-09-13T02:10:46.156Z,10.90
2022-09-13T02:13:56.212Z,7.57
2022-09-13T02:17:15.198Z,6.03
2022-09-13T02:20:23.099Z,4.55
2022-09-13T02:23:32.399Z,10.68
2022-09-13T02:26:37.889Z,6.40
2022-09-13T02:29:42.579Z,7.75
2022-09-13T02:32:51.610Z,7.47
2022-09-13T02:36:00.813Z,5.57
2022-09-13T02:39:06.374Z,5.05
2022-09-13T02:42:23.130Z,5.40
2022-09-13T02:45:31.977Z,4.72
2022-09-13T02:49:01.972Z,6.07
2022-09-13T02:52:23.535Z,5.95
2022-09-13T02:55:48.269Z,5.10
2022-09-13T02:59:24.808Z,8.35
2022-09-13T03:02:32.565Z,7.65
2022-09-13T03:05:34.284Z,5.45
2022-09-13T03:08:37.347Z,5.65
2022-09-13T03:11:57.413Z,5.50
2022-09-13T03:15:04.858Z,4.70
2022-09-13T03:18:25.298Z,12.75
2022-09-13T03:21:52.412Z,5.38
2022-09-13T03:25:22.926Z,5.68
2022-09-13T03:32:10.645Z,8.82
2022-09-13T03:35:21.668Z,5.65
2022-09-13T03:43:41.459Z,5.93
2022-09-13T03:46:49.899Z,11.38
2022-09-13T03:49:52.758Z,11.55
2022-09-13T03:53:03.137Z,7.57
2022-09-13T03:56:17.634Z,8.07
2022-09-13T03:59:20.412Z,10.85
2022-09-13T04:02:24.451Z,6.45
2022-09-13T04:05:26.356Z,7.78
2022-09-13T04:08:27.975Z,6.20
2022-09-13T04:11:30.171Z,8.77
2022-09-13T04:14:31.982Z,6.88
2022-09-13T04:17:33.805Z,5.88
2022-09-13T04:20:36.017Z,5.63
2022-09-13T04:23:38.283Z,8.77
2022-09-13T04:26:39.861Z,5.10
2022-09-13T04:29:41.645Z,7.32
2022-09-13T04:32:44.451Z,8.13
2022-09-13T04:35:46.446Z,8.25
2022-09-13T04:38:48.229Z,9.68
2022-09-13T04:41:51.862Z,6.13
2022-09-13T04:44:53.471Z,5.97
2022-09-13T04:47:56.540Z,6.88
2022-09-13T04:51:04.525Z,7.80
2022-09-13T04:54:06.378Z,9.68
2022-09-13T04:57:08.463Z,8.70
2022-09-13T05:00:10.555Z,8.40
2022-09-13T05:03:12.133Z,11.02
2022-09-13T05:06:17.925Z,9.05
2022-09-13T05:09:19.624Z,11.38
2022-09-13T05:12:21.171Z,7.05
2022-09-13T05:15:28.551Z,13.55
2022-09-13T05:18:32.733Z,8.20
2022-09-13T05:21:34.387Z,11.05
2022-09-13T05:24:35.961Z,9.40
2022-09-13T05:27:40.158Z,6.65
2022-09-13T05:30:42.406Z,7.53
2022-09-13T05:33:59.812Z,6.75
2022-09-13T05:37:01.480Z,8.35
2022-09-13T05:40:12.342Z,9.95
2022-09-13T05:43:14.581Z,8.55
2022-09-13T05:46:21.965Z,9.70
2022-09-13T05:49:25.265Z,8.00
2022-09-13T05:52:29.678Z,10.63
2022-09-13T05:55:31.878Z,6.93
2022-09-13T05:58:35.376Z,9.65
2022-09-13T06:01:37.144Z,8.43
2022-09-13T06:04:38.926Z,6.72
2022-09-13T06:07:42.181Z,11.25
2022-09-13T06:10:43.815Z,7.97
2022-09-13T06:13:45.455Z,8.27
2022-09-13T06:16:47.158Z,6.13
2022-09-13T06:19:48.846Z,11.90
2022-09-13T06:22:50.437Z,8.43
2022-09-13T06:26:02.138Z,6.55
2022-09-13T06:29:03.760Z,11.15
2022-09-13T06:32:05.829Z,8.32
2022-09-13T06:35:08.294Z,8.88
2022-09-13T06:38:09.880Z,7.25
2022-09-13T06:41:20.568Z,9.40
2022-09-13T06:44:22.533Z,7.50
2022-09-13T06:47:24.282Z,7.55
2022-09-13T06:50:25.955Z,10.80
2022-09-13T06:53:28.922Z,6.13
2022-09-13T06:56:32.761Z,7.80
2022-09-13T06:59:34.958Z,5.97
2022-09-13T07:02:36.600Z,7.88
2022-09-13T07:05:38.130Z,12.90
2022-09-13T07:08:46.571Z,7.28
2022-09-13T07:11:50.349Z,6.50
2022-09-13T07:14:51.887Z,6.60
2022-09-13T07:17:53.470Z,5.50
2022-09-13T07:21:01.182Z,8.68
2022-09-13T07:24:04.113Z,6.78
2022-09-13T07:27:05.738Z,8.68
2022-09-13T07:30:07.922Z,6.32
2022-09-13T07:33:09.530Z,8.55
2022-09-13T07:36:12.239Z,9.50
2022-09-13T07:39:22.070Z,12.13
2022-09-13T07:42:24.187Z,8.63
2022-09-13T07:45:25.790Z,7.32
2022-09-13T07:48:33.239Z,8.65
2022-09-13T07:51:37.435Z,11.77
2022-09-13T07:54:39.074Z,10.40
2022-09-13T07:57:40.752Z,16.55
2022-09-13T08:00:42.461Z,15.95
2022-09-13T08:03:44.476Z,11.20
2022-09-13T08:06:46.977Z,6.78
2022-09-13T08:09:48.785Z,12.88
2022-09-13T08:12:50.441Z,11.52
2022-09-13T08:15:52.179Z,8.27
2022-09-13T08:18:55.678Z,15.57
2022-09-13T08:21:57.265Z,11.02
2022-09-13T08:24:58.862Z,13.00
2022-09-13T08:28:01.748Z,9.45
2022-09-13T08:31:12.185Z,9.77
2022-09-13T08:37:16.781Z,13.68
2022-09-13T08:40:18.766Z,11.05
2022-09-13T08:43:49.230Z,15.75
2022-09-13T08:50:17.247Z,16.90
2022-09-13T08:53:26.082Z,14.57
2022-09-13T08:56:48.425Z,12.77
2022-09-13T09:00:28.060Z,12.52
2022-09-13T09:03:43.035Z,11.20
2022-09-13T09:06:45.022Z,14.18
2022-09-13T09:09:53.771Z,20.33
2022-09-13T09:12:59.382Z,14.50
2022-09-13T09:16:35.238Z,23.13
2022-09-13T09:19:41.928Z,11.60
2022-09-13T09:22:45.534Z,11.23
2022-09-13T09:25:47.598Z,14.27
2022-09-13T09:29:16.484Z,17.63
2022-09-13T09:32:32.787Z,17.15
2022-09-13T09:35:47.801Z,10.88
2022-09-13T09:38:49.473Z,17.80
2022-09-13T09:41:51.338Z,12.00
2022-09-13T09:45:04.653Z,16.02
2022-09-13T09:48:14.842Z,15.13
2022-09-13T09:51:20.133Z,17.75
2022-09-13T09:54:23.150Z,19.52
2022-09-13T09:58:08.283Z,12.75
2022-09-13T10:01:18.742Z,20.20
2022-09-13T10:04:22.518Z,14.63
2022-09-13T10:07:35.742Z,17.80
2022-09-13T10:10:42.727Z,16.50
2022-09-13T10:14:02.529Z,19.60
2022-09-13T10:17:26.663Z,22.88
2022-09-13T10:20:28.345Z,21.58
2022-09-13T10:23:32.405Z,14.40
2022-09-13T10:26:34.406Z,12.15
2022-09-13T10:29:36.350Z,22.98
2022-09-13T10:32:37.998Z,24.67
2022-09-13T10:35:39.664Z,17.55
2022-09-13T10:38:47.883Z,15.07
2022-09-13T10:41:57.883Z,20.30
2022-09-13T10:45:01.380Z,15.52
2022-09-13T10:48:13.953Z,13.85
2022-09-13T10:51:21.935Z,17.15
2022-09-13T10:54:24.133Z,20.60
2022-09-13T10:57:35.361Z,18.27
2022-09-13T11:00:42.789Z,19.90
2022-09-13T11:03:56.943Z,17.73
2022-09-13T11:07:16.634Z,15.50
2022-09-13T11:10:29.146Z,22.30
2022-09-13T11:13:49.568Z,19.02
2022-09-13T11:17:03.918Z,20.15
2022-09-13T11:20:32.113Z,18.38
2022-09-13T11:23:59.742Z,14.75
2022-09-13T11:27:14.727Z,20.73
2022-09-13T11:30:29.808Z,15.77
2022-09-13T11:33:37.703Z,18.85
2022-09-13T11:36:50.700Z,15.57
2022-09-13T11:39:59.693Z,18.45
2022-09-13T11:43:41.306Z,19.73
2022-09-13T11:47:13.296Z,14.68
2022-09-13T11:50:55.832Z,13.30
2022-09-13T11:54:16.313Z,13.00
2022-09-13T11:57:25.283Z,9.15
2022-09-13T12:00:33.088Z,11.30
2022-09-13T12:03:43.496Z,17.02
2022-09-13T12:06:50.334Z,12.80
2022-09-13T12:10:21.384Z,17.38
2022-09-13T12:13:27.420Z,10.25
2022-09-13T12:16:36.773Z,14.60
2022-09-13T12:19:51.623Z,11.70
2022-09-13T12:22:55.772Z,14.68
2022-09-13T12:26:17.504Z,11.57
2022-09-13T12:29:45.476Z,15.40
2022-09-13T12:32:49.037Z,8.35
2022-09-13T12:35:56.261Z,19.08
2022-09-13T12:39:35.224Z,7.65
2022-09-13T12:42:46.371Z,15.82
2022-09-13T12:46:09.637Z,20.52
2022-09-13T12:49:31.022Z,18.15
2022-09-13T12:53:29.044Z,22.45
2022-09-13T12:56:37.235Z,18.25
2022-09-13T13:00:02.510Z,20.63
2022-09-13T13:03:12.168Z,16.60
2022-09-13T13:06:48.885Z,6.53
2022-09-13T13:09:56.310Z,14.52
2022-09-13T13:13:11.131Z,21.33
2022-09-13T13:16:27.822Z,20.38
2022-09-13T13:19:32.276Z,21.50
2022-09-13T13:22:43.306Z,15.65
2022-09-13T13:26:08.044Z,13.38
2022-09-13T13:29:29.966Z,14.18
2022-09-13T13:32:31.720Z,23.25
2022-09-13T13:35:33.602Z,18.15
2022-09-13T13:38:41.830Z,12.68
2022-09-13T13:41:49.419Z,21.15
2022-09-13T13:44:56.924Z,13.02
2022-09-13T13:48:35.751Z,14.80
2022-09-13T13:51:37.706Z,13.00
2022-09-13T13:54:42.380Z,23.33
2022-09-13T13:57:59.581Z,6.93
2022-09-13T14:01:02.790Z,14.52
2022-09-13T14:04:33.524Z,17.30
2022-09-13T14:07:52.898Z,15.30
2022-09-13T14:11:42.223Z,16.92
2022-09-13T14:15:13.460Z,8.93
2022-09-13T14:18:15.112Z,8.82
2022-09-13T14:21:25.037Z,10.27
2022-09-13T14:24:31.344Z,7.07
2022-09-13T14:27:43.683Z,10.18
2022-09-13T14:30:49.563Z,8.30
2022-09-13T14:33:52.823Z,8.05
2022-09-13T14:36:57.804Z,13.45
2022-09-13T14:40:18.824Z,16.95
2022-09-13T14:43:24.190Z,16.67
2022-09-13T14:46:37.526Z,22.33
2022-09-13T14:49:49.011Z,22.20
2022-09-13T14:52:58.545Z,13.73
2022-09-13T14:56:22.394Z,12.52
2022-09-13T14:59:29.912Z,14.88
2022-09-13T15:02:37.826Z,10.98
2022-09-13T15:05:40.595Z,13.82
2022-09-13T15:08:48.079Z,10.93
2022-09-13T15:11:53.237Z,13.45
2022-09-13T15:15:26.174Z,10.90
2022-09-13T15:18:36.655Z,12.10
2022-09-13T15:21:39.191Z,7.93
2022-09-13T15:24:54.627Z,10.15
2022-09-13T15:27:57.553Z,12.20
2022-09-13T15:31:00.966Z,16.30
2022-09-13T15:34:17.990Z,12.02
2022-09-13T15:37:30.178Z,11.20
2022-09-13T15:40:43.313Z,8.45
2022-09-13T15:43:47.867Z,17.50
2022-09-13T15:47:02.189Z,12.13
2022-09-13T15:50:04.356Z,10.55
2022-09-13T15:53:12.079Z,10.45
2022-09-13T15:56:19.976Z,16.73
2022-09-13T15:59:22.417Z,12.95
2022-09-13T16:02:30.783Z,11.05
2022-09-13T16:05:33.250Z,18.80
2022-09-13T16:08:36.435Z,14.15
2022-09-13T16:11:38.332Z,11.57
2022-09-13T16:14:40.681Z,13.45
2022-09-13T16:17:42.612Z,13.85
2022-09-13T16:20:45.410Z,13.05
2022-09-13T16:23:47.425Z,15.32
2022-09-13T16:26:49.250Z,14.02
2022-09-13T16:29:51.010Z,14.00
2022-09-13T16:32:52.736Z,12.52
2022-09-13T16:35:54.461Z,16.10
2022-09-13T16:39:00.831Z,13.25
2022-09-13T16:42:02.615Z,11.32
2022-09-13T16:45:05.035Z,14.10
2022-09-13T16:48:08.327Z,15.05
2022-09-13T16:51:13.448Z,15.48
2022-09-13T16:54:15.853Z,11.70
2022-09-13T16:57:22.666Z,17.00
2022-09-13T17:00:29.659Z,11.55
2022-09-13T17:03:34.138Z,14.30
2022-09-13T17:06:36.159Z,13.77
2022-09-13T17:09:40.632Z,16.30
2022-09-13T17:12:42.999Z,13.45
2022-09-13T17:15:45.016Z,15.85
2022-09-13T17:18:46.894Z,15.93
2022-09-13T17:21:52.348Z,11.38
2022-09-13T17:24:58.761Z,11.02
2022-09-13T17:28:00.711Z,17.08
2022-09-13T17:31:03.440Z,13.60
2022-09-13T17:34:07.891Z,15.38
2022-09-13T17:37:10.482Z,14.18
2022-09-13T17:40:12.661Z,14.60
2022-09-13T17:43:20.773Z,17.17
2022-09-13T17:46:25.073Z,14.35
2022-09-13T17:49:26.963Z,12.07
2022-09-13T17:52:34.729Z,11.70
2022-09-13T17:55:37.060Z,13.30
2022-09-13T17:58:38.941Z,13.00
2022-09-13T18:01:48.294Z,15.25
2022-09-13T18:04:53.338Z,11.65
2022-09-13T18:07:55.141Z,16.58
2022-09-13T18:11:13.108Z,11.00
2022-09-13T18:14:19.781Z,12.48
2022-09-13T18:17:21.527Z,18.83
2022-09-13T18:20:23.455Z,11.25
2022-09-13T18:23:31.791Z,11.75
2022-09-13T18:26:37.351Z,10.70
2022-09-13T18:29:51.162Z,12.10
2022-09-13T18:33:03.863Z,12.48
2022-09-13T18:42:15.908Z,12.70
2022-09-13T18:44:37.714Z,11.25
2022-09-13T18:51:01.502Z,9.15
2022-09-13T18:54:06.362Z,11.65
2022-09-13T18:57:08.916Z,11.95
2022-09-13T19:00:11.296Z,9.35
2022-09-13T19:03:13.680Z,14.45
2022-09-13T19:06:22.088Z,11.43
2022-09-13T19:09:24.766Z,14.73
2022-09-13T19:12:26.844Z,14.07
2022-09-13T19:15:29.033Z,11.80
2022-09-13T19:18:31.335Z,16.27
2022-09-13T19:21:34.133Z,10.43
2022-09-13T19:27:55.827Z,15.23
2022-09-13T19:31:04.377Z,11.98
2022-09-13T19:34:07.736Z,6.25
2022-09-13T19:37:10.720Z,7.22
2022-09-13T19:40:20.148Z,13.55
2022-09-13T19:43:25.977Z,7.17
2022-09-13T19:50:05.159Z,8.43
2022-09-13T19:56:38.000Z,7.05
2022-09-13T19:59:43.316Z,5.72
2022-09-13T20:06:11.598Z,7.25
2022-09-13T20:09:17.465Z,5.90
2022-09-13T20:12:25.840Z,10.55
2022-09-13T20:15:32.420Z,9.35
2022-09-13T20:18:38.509Z,8.38
2022-09-13T20:21:45.106Z,11.75
2022-09-13T20:24:46.951Z,11.93
2022-09-13T20:27:49.021Z,7.90
2022-09-13T20:30:56.134Z,9.63
2022-09-13T20:34:01.006Z,4.63
2022-09-13T20:40:22.993Z,5.55
2022-09-13T20:43:28.775Z,4.05
2022-09-13T20:49:47.740Z,5.10
2022-09-13T20:52:50.686Z,12.20
2022-09-13T20:59:10.712Z,6.32
2022-09-13T21:02:26.436Z,8.70
2022-09-13T21:05:28.511Z,6.85
2022-09-13T21:08:49.797Z,14.07
2022-09-13T21:11:51.862Z,6.68
2022-09-13T21:18:24.065Z,15.02
2022-09-13T21:21:32.105Z,9.30
2022-09-13T21:31:14.501Z,12.52
2022-09-13T21:34:20.827Z,6.57
2022-09-13T21:37:26.752Z,6.47
2022-09-13T21:40:28.848Z,3.88
2022-09-13T21:43:32.771Z,8.90
2022-09-13T21:46:37.696Z,4.55
2022-09-13T21:49:40.417Z,11.35
2022-09-13T21:56:01.905Z,5.20
2022-09-13T21:59:06.845Z,11.48
2022-09-13T22:05:25.718Z,9.85
2022-09-13T22:08:33.063Z,4.10
2022-09-13T22:11:39.950Z,9.02
2022-09-13T22:14:41.660Z,11.13
2022-09-13T22:17:44.554Z,3.53
2022-09-13T22:20:52.563Z,8.73
2022-09-13T22:23:56.919Z,13.55
2022-09-13T22:26:59.604Z,8.05
2022-09-13T22:30:01.977Z,5.72
2022-09-13T22:33:03.941Z,7.78
2022-09-13T22:39:32.499Z,7.70
2022-09-13T22:46:09.169Z,16.17
2022-09-13T22:49:17.581Z,12.93
2022-09-13T22:55:37.278Z,6.05
2022-09-13T22:58:42.759Z,7.07
2022-09-13T23:01:47.361Z,8.50
2022-09-13T23:04:59.119Z,7.38
2022-09-13T23:08:04.167Z,12.20
2022-09-13T23:11:19.460Z,6.68
2022-09-13T23:14:21.614Z,5.10
2022-09-13T23:17:23.449Z,7.63
2022-09-13T23:20:26.373Z,8.07
2022-09-13T23:23:33.168Z,5.35
2022-09-13T23:26:35.498Z,9.15
2022-09-13T23:29:39.385Z,7.45
2022-09-13T23:32:50.997Z,9.60
2022-09-13T23:35:59.148Z,8.30
2022-09-13T23:39:05.077Z,12.52
2022-09-13T23:42:14.283Z,8.13
2022-09-13T23:48:32.090Z,8.05
